createdAt,value
2022-11-09T00:01:30.137Z,56.75
2022-11-09T00:04:02.726Z,37.95
2022-11-09T00:06:39.871Z,11.40
2022-11-09T00:09:09.774Z,7.13
2022-11-09T00:11:38.954Z,6.95
2022-11-09T00:14:18.819Z,7.00
2022-11-09T00:16:46.990Z,6.70
2022-11-09T00:19:14.590Z,7.22
2022-11-09T00:21:42.317Z,6.97
2022-11-09T00:24:10.664Z,6.93
2022-11-09T00:26:38.269Z,7.07
2022-11-09T00:29:06.510Z,7.63
2022-11-09T00:31:34.682Z,7.60
2022-11-09T00:34:03.306Z,7.80
2022-11-09T00:39:01.234Z,8.05
2022-11-09T00:41:29.287Z,6.72
2022-11-09T00:43:57.519Z,8.27
2022-11-09T00:46:25.697Z,7.30
2022-11-09T00:48:56.225Z,8.27
2022-11-09T00:51:25.828Z,7.72
2022-11-09T00:53:54.737Z,6.55
2022-11-09T00:56:26.674Z,7.45
2022-11-09T00:58:55.968Z,6.80
2022-11-09T01:01:27.885Z,5.95
2022-11-09T01:03:55.475Z,6.75
2022-11-09T01:06:27.057Z,6.53
2022-11-09T01:08:55.163Z,6.80
2022-11-09T01:11:23.799Z,7.68
2022-11-09T01:13:54.521Z,7.50
2022-11-09T01:16:24.840Z,7.07
2022-11-09T01:18:55.692Z,6.75
2022-11-09T01:21:27.485Z,7.25
2022-11-09T01:23:58.806Z,7.22
2022-11-09T01:26:30.919Z,6.70
2022-11-09T01:28:59.613Z,6.75
2022-11-09T01:31:31.613Z,5.75
2022-11-09T01:34:02.857Z,5.85
2022-11-09T01:36:34.638Z,6.07
2022-11-09T01:39:02.291Z,6.28
2022-11-09T01:41:33.648Z,6.37
2022-11-09T01:44:20.721Z,5.95
2022-11-09T01:47:03.642Z,5.72
2022-11-09T01:49:43.953Z,6.10
2022-11-09T01:52:22.667Z,5.57
2022-11-09T01:55:02.171Z,5.75
2022-11-09T01:58:12.622Z,5.85
2022-11-09T02:00:46.668Z,6.10
2022-11-09T02:03:39.700Z,6.55
2022-11-09T02:06:13.068Z,5.78
2022-11-09T02:08:46.277Z,6.22
2022-11-09T02:11:21.111Z,5.82
2022-11-09T02:13:57.802Z,6.38
2022-11-09T02:16:28.863Z,5.38
2022-11-09T02:19:00.922Z,6.07
2022-11-09T02:21:32.082Z,6.35
2022-11-09T02:24:01.005Z,5.57
2022-11-09T02:26:41.801Z,5.72
2022-11-09T02:29:36.021Z,5.85
2022-11-09T02:32:19.727Z,6.03
2022-11-09T02:34:48.078Z,5.95
2022-11-09T02:37:32.857Z,6.05
2022-11-09T02:40:05.655Z,6.03
2022-11-09T02:42:33.915Z,5.93
2022-11-09T02:45:02.378Z,5.72
2022-11-09T02:47:30.962Z,6.45
2022-11-09T02:49:59.595Z,6.45
2022-11-09T02:52:28.171Z,6.32
2022-11-09T02:54:56.133Z,5.55
2022-11-09T02:57:23.667Z,6.05
2022-11-09T02:59:52.273Z,5.50
2022-11-09T03:02:21.338Z,6.03
2022-11-09T03:04:49.248Z,5.72
2022-11-09T03:07:17.166Z,5.57
2022-11-09T03:09:46.254Z,5.40
2022-11-09T03:12:29.371Z,5.68
2022-11-09T03:15:06.726Z,8.57
2022-11-09T03:17:36.467Z,7.88
2022-11-09T03:20:04.837Z,5.18
2022-11-09T03:22:32.973Z,4.90
2022-11-09T03:25:01.901Z,5.68
2022-11-09T03:27:32.161Z,5.90
2022-11-09T03:30:01.645Z,5.30
2022-11-09T03:32:30.610Z,5.68
2022-11-09T03:34:58.748Z,7.28
2022-11-09T03:37:27.808Z,7.20
2022-11-09T03:39:55.937Z,6.95
2022-11-09T03:42:24.755Z,6.30
2022-11-09T03:44:52.806Z,5.32
2022-11-09T03:47:20.516Z,4.65
2022-11-09T03:49:48.066Z,4.87
2022-11-09T03:52:15.533Z,5.00
2022-11-09T03:54:43.542Z,4.50
2022-11-09T03:57:11.173Z,4.47
2022-11-09T03:59:40.746Z,5.20
2022-11-09T04:02:09.026Z,4.43
2022-11-09T04:04:36.664Z,3.93
2022-11-09T04:07:04.649Z,3.28
2022-11-09T04:09:33.326Z,3.13
2022-11-09T04:14:29.080Z,2.90
2022-11-09T04:16:56.784Z,2.20
2022-11-09T04:19:26.501Z,2.17
2022-11-09T04:21:54.174Z,2.70
2022-11-09T04:24:21.841Z,8.98
2022-11-09T04:26:49.440Z,5.17
2022-11-09T04:29:17.127Z,4.33
2022-11-09T04:31:45.758Z,5.47
2022-11-09T04:34:13.471Z,4.85
2022-11-09T04:36:41.158Z,4.07
2022-11-09T04:39:08.731Z,3.17
2022-11-09T04:41:37.176Z,3.15
2022-11-09T04:46:32.776Z,2.97
2022-11-09T04:49:00.381Z,3.40
2022-11-09T04:51:27.921Z,3.28
2022-11-09T04:53:56.611Z,5.05
2022-11-09T04:56:24.302Z,14.90
2022-11-09T04:58:51.922Z,7.77
2022-11-09T05:01:21.115Z,5.97
2022-11-09T05:03:48.792Z,6.30
2022-11-09T05:06:32.660Z,5.33
2022-11-09T05:09:06.544Z,5.60
2022-11-09T05:11:36.099Z,4.47
2022-11-09T05:14:04.471Z,6.55
2022-11-09T05:16:32.343Z,5.40
2022-11-09T05:19:00.004Z,5.00
2022-11-09T05:21:27.744Z,5.05
2022-11-09T05:24:01.352Z,4.80
2022-11-09T05:26:38.114Z,5.18
2022-11-09T05:29:12.734Z,4.35
2022-11-09T05:31:44.528Z,5.03
2022-11-09T05:34:15.776Z,11.95
2022-11-09T05:36:45.035Z,5.30
2022-11-09T05:39:13.931Z,9.40
2022-11-09T05:41:42.191Z,6.63
2022-11-09T05:44:09.709Z,5.35
2022-11-09T05:46:37.246Z,5.63
2022-11-09T05:49:04.746Z,5.75
2022-11-09T05:51:32.422Z,4.60
2022-11-09T05:53:59.929Z,7.73
2022-11-09T05:56:27.572Z,4.88
2022-11-09T05:58:55.069Z,6.67
2022-11-09T06:01:22.718Z,5.10
2022-11-09T06:03:50.708Z,3.90
2022-11-09T06:06:19.691Z,3.55
2022-11-09T06:08:48.010Z,4.00
2022-11-09T06:13:53.140Z,3.78
2022-11-09T06:16:25.533Z,4.60
2022-11-09T06:18:55.017Z,5.45
2022-11-09T06:21:26.538Z,6.10
2022-11-09T06:23:54.950Z,4.32
2022-11-09T06:26:23.710Z,4.53
2022-11-09T06:28:53.236Z,2.95
2022-11-09T06:31:21.070Z,3.50
2022-11-09T06:33:48.771Z,2.97
2022-11-09T06:36:20.855Z,4.22
2022-11-09T06:41:22.893Z,3.63
2022-11-09T06:43:50.463Z,2.83
2022-11-09T06:46:18.027Z,2.70
2022-11-09T06:48:49.401Z,2.17
2022-11-09T06:51:20.025Z,23.27
2022-11-09T06:53:47.904Z,38.03
2022-11-09T06:56:16.056Z,34.72
2022-11-09T06:58:43.902Z,4.65
2022-11-09T07:03:42.195Z,4.13
2022-11-09T07:06:12.959Z,5.03
2022-11-09T07:08:41.722Z,5.00
2022-11-09T07:11:16.305Z,3.45
2022-11-09T07:13:44.465Z,3.67
2022-11-09T07:16:12.767Z,3.10
2022-11-09T07:18:40.520Z,3.17
2022-11-09T07:21:14.280Z,4.63
2022-11-09T07:23:43.327Z,12.55
2022-11-09T07:26:10.930Z,16.73
2022-11-09T07:28:38.715Z,3.78
2022-11-09T07:31:07.671Z,3.00
2022-11-09T07:33:35.278Z,4.18
2022-11-09T07:36:05.735Z,3.75
2022-11-09T07:38:33.496Z,32.33
2022-11-09T07:41:02.260Z,27.98
2022-11-09T07:43:30.533Z,28.17
2022-11-09T07:46:04.884Z,32.33
2022-11-09T07:48:33.056Z,25.38
2022-11-09T07:51:02.499Z,4.07
2022-11-09T07:53:30.841Z,19.33
2022-11-09T07:56:01.741Z,5.38
2022-11-09T07:58:30.892Z,5.43
2022-11-09T08:00:59.010Z,6.95
2022-11-09T08:03:26.758Z,6.15
2022-11-09T08:05:58.824Z,6.55
2022-11-09T08:08:26.586Z,6.50
2022-11-09T08:10:58.434Z,5.70
2022-11-09T08:13:26.585Z,6.22
2022-11-09T08:15:54.295Z,6.65
2022-11-09T08:18:23.486Z,18.27
2022-11-09T08:20:51.476Z,20.83
2022-11-09T08:23:21.292Z,27.60
2022-11-09T08:25:53.434Z,29.67
2022-11-09T08:28:22.916Z,26.98
2022-11-09T08:30:59.450Z,27.45
2022-11-09T08:33:38.623Z,26.45
2022-11-09T08:36:17.462Z,24.52
2022-11-09T08:38:45.996Z,24.17
2022-11-09T08:41:15.669Z,21.23
2022-11-09T08:43:43.318Z,21.42
2022-11-09T08:46:10.860Z,20.35
2022-11-09T08:48:38.465Z,19.05
2022-11-09T08:51:06.648Z,18.13
2022-11-09T08:53:34.221Z,17.42
2022-11-09T08:56:02.371Z,17.85
2022-11-09T08:58:30.133Z,17.15
2022-11-09T09:00:57.900Z,17.95
2022-11-09T09:03:25.501Z,18.05
2022-11-09T09:05:53.018Z,18.23
2022-11-09T09:08:23.252Z,18.35
2022-11-09T09:10:51.289Z,16.98
2022-11-09T09:13:19.514Z,16.50
2022-11-09T09:15:48.147Z,16.02
2022-11-09T09:18:16.686Z,14.85
2022-11-09T09:20:44.669Z,16.23
2022-11-09T09:23:14.207Z,20.95
2022-11-09T09:25:48.380Z,22.70
2022-11-09T09:28:17.040Z,22.58
2022-11-09T09:30:44.796Z,18.67
2022-11-09T09:33:12.787Z,11.18
2022-11-09T09:35:40.346Z,13.32
2022-11-09T09:38:07.891Z,17.65
2022-11-09T09:40:46.792Z,18.98
2022-11-09T09:43:29.967Z,17.35
2022-11-09T09:46:00.954Z,17.33
2022-11-09T09:48:39.783Z,12.32
2022-11-09T09:51:34.865Z,12.68
2022-11-09T09:54:33.673Z,12.20
2022-11-09T09:57:02.571Z,12.70
2022-11-09T09:59:50.670Z,13.57
2022-11-09T10:02:30.919Z,12.32
2022-11-09T10:05:06.858Z,13.30
2022-11-09T10:07:57.650Z,11.25
2022-11-09T10:10:44.649Z,24.45
2022-11-09T10:13:52.846Z,10.73
2022-11-09T10:16:56.187Z,9.75
2022-11-09T10:20:00.711Z,11.85
2022-11-09T10:22:55.892Z,9.30
2022-11-09T10:25:50.201Z,7.80
2022-11-09T10:28:17.947Z,6.78
2022-11-09T10:30:47.180Z,7.03
2022-11-09T10:33:21.330Z,7.05
2022-11-09T10:36:24.850Z,7.43
2022-11-09T10:38:58.791Z,6.75
2022-11-09T10:41:46.988Z,6.85
2022-11-09T10:44:34.703Z,6.30
2022-11-09T10:47:22.620Z,5.38
2022-11-09T10:50:19.779Z,4.93
2022-11-09T10:53:14.529Z,5.00
2022-11-09T10:56:19.927Z,4.90
2022-11-09T10:59:38.035Z,4.00
2022-11-09T11:02:26.932Z,4.50
2022-11-09T11:05:18.056Z,4.25
2022-11-09T11:08:31.435Z,4.60
2022-11-09T11:11:33.253Z,4.40
2022-11-09T11:14:34.332Z,5.07
2022-11-09T11:17:28.477Z,3.65
2022-11-09T11:20:37.109Z,4.00
2022-11-09T11:23:26.652Z,4.00
2022-11-09T11:26:19.658Z,3.45
2022-11-09T11:29:19.596Z,3.30
2022-11-09T11:32:17.270Z,3.05
2022-11-09T11:35:17.162Z,3.65
2022-11-09T11:38:27.857Z,3.30
2022-11-09T11:42:06.879Z,4.30
2022-11-09T11:48:47.953Z,3.67
2022-11-09T11:51:56.017Z,3.60
2022-11-09T11:55:22.255Z,3.20
2022-11-09T11:58:33.518Z,3.60
2022-11-09T12:01:42.694Z,3.97
2022-11-09T12:05:29.165Z,3.45
2022-11-09T12:11:57.706Z,3.30
2022-11-09T12:15:28.638Z,3.58
2022-11-09T12:18:35.646Z,4.15
2022-11-09T12:21:39.025Z,3.83
2022-11-09T12:24:47.683Z,4.25
2022-11-09T12:27:44.244Z,3.75
2022-11-09T12:31:21.155Z,4.50
2022-11-09T12:34:37.788Z,4.40
2022-11-09T12:40:31.395Z,4.38
2022-11-09T12:43:30.366Z,4.80
2022-11-09T12:49:27.559Z,4.88
2022-11-09T12:52:20.999Z,4.75
2022-11-09T12:55:07.851Z,4.53
2022-11-09T13:00:50.237Z,4.47
2022-11-09T13:04:05.457Z,4.63
2022-11-09T13:07:39.798Z,4.18
2022-11-09T13:10:36.990Z,4.47
2022-11-09T13:13:27.315Z,5.00
2022-11-09T13:16:20.358Z,4.85
2022-11-09T13:19:09.487Z,4.68
2022-11-09T13:21:55.777Z,4.55
2022-11-09T13:25:04.630Z,4.30
2022-11-09T13:27:51.141Z,4.43
2022-11-09T13:30:42.167Z,6.30
2022-11-09T13:33:34.987Z,5.38
2022-11-09T13:36:21.663Z,5.03
2022-11-09T13:39:30.958Z,5.20
2022-11-09T13:42:37.039Z,5.28
2022-11-09T13:45:33.795Z,6.05
2022-11-09T13:48:26.466Z,5.50
2022-11-09T13:51:46.404Z,4.93
2022-11-09T13:54:44.452Z,5.32
2022-11-09T13:57:32.575Z,4.47
2022-11-09T14:00:26.700Z,5.40
2022-11-09T14:03:28.774Z,4.43
2022-11-09T14:06:15.770Z,4.07
2022-11-09T14:09:04.100Z,4.35
2022-11-09T14:12:18.529Z,4.75
2022-11-09T14:15:30.154Z,3.70
2022-11-09T14:19:10.423Z,8.25
2022-11-09T14:21:57.464Z,5.05
2022-11-09T14:24:44.434Z,9.60
2022-11-09T14:27:34.473Z,9.03
2022-11-09T14:30:24.208Z,8.65
2022-11-09T14:33:29.501Z,11.60
2022-11-09T14:36:16.613Z,9.68
2022-11-09T14:41:52.373Z,12.45
2022-11-09T14:44:45.248Z,6.15
2022-11-09T14:47:37.923Z,6.93
2022-11-09T14:50:27.138Z,10.23
2022-11-09T14:53:28.504Z,6.22
2022-11-09T14:56:19.614Z,5.70
2022-11-09T14:59:18.631Z,5.43
2022-11-09T15:02:10.719Z,7.35
2022-11-09T15:05:04.485Z,11.30
2022-11-09T15:07:52.008Z,12.10
2022-11-09T15:10:38.420Z,11.40
2022-11-09T15:13:37.388Z,10.65
2022-11-09T15:16:29.658Z,12.70
2022-11-09T15:20:03.354Z,21.25
2022-11-09T15:23:06.704Z,23.15
2022-11-09T15:25:56.501Z,30.52
2022-11-09T15:31:37.420Z,35.90
2022-11-09T15:37:57.609Z,22.27
2022-11-09T15:40:43.949Z,21.20
2022-11-09T15:43:32.476Z,27.02
2022-11-09T15:46:34.583Z,22.63
2022-11-09T15:49:42.074Z,19.83
2022-11-09T15:52:31.136Z,23.85
2022-11-09T15:55:28.870Z,25.95
2022-11-09T15:58:20.374Z,28.73
2022-11-09T16:01:12.967Z,28.35
2022-11-09T16:03:59.522Z,25.58
2022-11-09T16:06:47.896Z,26.05
2022-11-09T16:09:34.134Z,26.10
2022-11-09T16:12:20.679Z,24.17
2022-11-09T16:15:07.657Z,31.90
2022-11-09T16:17:53.997Z,25.63
2022-11-09T16:20:40.332Z,25.08
2022-11-09T16:23:27.904Z,22.48
2022-11-09T16:26:19.235Z,22.40
2022-11-09T16:29:05.465Z,25.58
2022-11-09T16:31:52.780Z,33.17
2022-11-09T16:34:39.942Z,30.23
2022-11-09T16:37:36.638Z,20.67
2022-11-09T16:40:23.969Z,55.45
2022-11-09T16:43:10.530Z,74.88
2022-11-09T16:46:00.658Z,63.72
2022-11-09T16:48:52.650Z,51.90
2022-11-09T16:51:40.353Z,43.17
2022-11-09T16:54:31.696Z,44.60
2022-11-09T16:57:19.567Z,49.47
2022-11-09T17:00:07.661Z,48.47
2022-11-09T17:03:04.581Z,32.97
2022-11-09T17:05:51.853Z,25.25
2022-11-09T17:08:41.541Z,23.15
2022-11-09T17:11:29.083Z,20.13
2022-11-09T17:14:14.858Z,18.43
2022-11-09T17:17:01.575Z,17.35
2022-11-09T17:19:48.683Z,14.43
2022-11-09T17:22:35.046Z,16.83
2022-11-09T17:25:22.582Z,12.95
2022-11-09T17:28:10.804Z,13.93
2022-11-09T17:30:56.952Z,13.90
2022-11-09T17:33:44.643Z,13.93
2022-11-09T17:36:57.409Z,14.40
2022-11-09T17:39:40.775Z,12.45
2022-11-09T17:42:34.294Z,12.63
2022-11-09T17:45:21.329Z,12.30
2022-11-09T17:48:08.195Z,12.30
2022-11-09T17:50:54.667Z,14.80
2022-11-09T17:53:41.426Z,13.00
2022-11-09T17:56:30.973Z,12.60
2022-11-09T17:59:16.787Z,12.75
2022-11-09T18:02:03.954Z,13.93
2022-11-09T18:04:50.511Z,14.65
2022-11-09T18:07:37.818Z,13.47
2022-11-09T18:10:23.593Z,14.38
2022-11-09T18:13:11.137Z,15.00
2022-11-09T18:15:57.250Z,15.68
2022-11-09T18:18:44.039Z,12.70
2022-11-09T18:21:32.812Z,12.00
2022-11-09T18:24:20.897Z,9.35
2022-11-09T18:27:07.707Z,9.40
2022-11-09T18:29:56.270Z,9.32
2022-11-09T18:32:42.637Z,8.98
2022-11-09T18:35:29.180Z,9.00
2022-11-09T18:38:20.071Z,9.80
2022-11-09T18:41:20.545Z,9.52
2022-11-09T18:44:06.819Z,9.05
2022-11-09T18:46:53.111Z,8.32
2022-11-09T18:49:40.924Z,8.20
2022-11-09T18:52:27.287Z,8.93
2022-11-09T18:55:14.044Z,8.50
2022-11-09T18:58:00.371Z,9.45
2022-11-09T19:00:46.930Z,9.43
2022-11-09T19:03:34.673Z,8.50
2022-11-09T19:06:24.554Z,10.15
2022-11-09T19:09:31.580Z,9.23
2022-11-09T19:12:18.158Z,9.43
2022-11-09T19:15:05.460Z,10.10
2022-11-09T19:17:53.727Z,9.07
2022-11-09T19:20:41.945Z,7.90
2022-11-09T19:23:34.191Z,9.02
2022-11-09T19:26:24.363Z,8.30
2022-11-09T19:29:19.686Z,8.20
2022-11-09T19:32:07.706Z,7.75
2022-11-09T19:34:54.190Z,7.80
2022-11-09T19:37:40.747Z,8.18
2022-11-09T19:40:35.501Z,7.93
2022-11-09T19:43:25.426Z,6.75
2022-11-09T19:46:13.762Z,7.75
2022-11-09T19:49:02.609Z,7.68
2022-11-09T19:51:49.662Z,7.32
2022-11-09T19:54:35.958Z,6.82
2022-11-09T19:57:22.938Z,7.28
2022-11-09T20:00:11.265Z,8.10
2022-11-09T20:02:58.850Z,8.07
2022-11-09T20:05:46.073Z,10.57
2022-11-09T20:08:35.133Z,10.07
2022-11-09T20:11:44.609Z,7.43
2022-11-09T20:14:31.245Z,6.47
2022-11-09T20:17:18.050Z,7.43
2022-11-09T20:20:05.629Z,8.15
2022-11-09T20:22:56.710Z,6.63
2022-11-09T20:25:43.786Z,11.07
2022-11-09T20:28:29.711Z,6.45
2022-11-09T20:31:22.046Z,9.27
2022-11-09T20:34:09.265Z,9.35
2022-11-09T20:36:55.582Z,8.68
2022-11-09T20:39:43.202Z,8.05
2022-11-09T20:42:30.288Z,7.75
2022-11-09T20:45:16.638Z,8.40
2022-11-09T20:48:14.727Z,8.70
2022-11-09T20:51:13.069Z,8.40
2022-11-09T20:54:05.436Z,8.13
2022-11-09T20:56:53.869Z,7.85
2022-11-09T20:59:40.610Z,6.85
2022-11-09T21:02:26.538Z,6.80
2022-11-09T21:05:13.082Z,6.13
2022-11-09T21:08:01.125Z,6.40
2022-11-09T21:10:48.161Z,6.15
2022-11-09T21:13:34.812Z,6.72
2022-11-09T21:16:27.905Z,7.82
2022-11-09T21:19:17.598Z,7.57
2022-11-09T21:22:05.390Z,7.43
2022-11-09T21:25:10.492Z,7.43
2022-11-09T21:28:17.357Z,6.63
2022-11-09T21:31:07.759Z,6.30
2022-11-09T21:33:55.711Z,6.72
2022-11-09T21:36:43.737Z,6.40
2022-11-09T21:39:30.030Z,7.28
2022-11-09T21:42:16.817Z,7.20
2022-11-09T21:45:03.623Z,7.00
2022-11-09T21:47:49.737Z,7.70
2022-11-09T21:50:36.593Z,7.63
2022-11-09T21:53:23.646Z,7.78
2022-11-09T21:56:10.747Z,8.60
2022-11-09T21:58:59.071Z,8.95
2022-11-09T22:01:48.222Z,7.60
2022-11-09T22:04:37.450Z,7.50
2022-11-09T22:07:24.103Z,7.50
2022-11-09T22:10:11.602Z,7.05
2022-11-09T22:13:16.542Z,6.35
2022-11-09T22:16:06.681Z,7.75
2022-11-09T22:19:12.232Z,7.80
2022-11-09T22:21:58.780Z,7.55
2022-11-09T22:24:46.667Z,6.53
2022-11-09T22:27:33.153Z,6.72
2022-11-09T22:30:19.547Z,5.95
2022-11-09T22:33:05.557Z,5.57
2022-11-09T22:36:01.560Z,5.57
2022-11-09T22:38:47.949Z,5.07
2022-11-09T22:41:34.334Z,4.85
2022-11-09T22:44:20.433Z,4.80
2022-11-09T22:47:07.089Z,4.80
2022-11-09T22:49:53.640Z,5.35
2022-11-09T22:52:40.215Z,4.80
2022-11-09T22:55:26.483Z,5.63
2022-11-09T22:58:12.641Z,5.95
2022-11-09T23:01:12.797Z,5.63
2022-11-09T23:03:58.954Z,5.97
2022-11-09T23:06:45.110Z,5.45
2022-11-09T23:09:31.501Z,5.10
2022-11-09T23:12:17.977Z,4.57
2022-11-09T23:15:05.139Z,4.45
2022-11-09T23:18:33.490Z,4.53
2022-11-09T23:21:49.394Z,4.28
2022-11-09T23:24:58.720Z,4.25
2022-11-09T23:27:44.782Z,4.68
2022-11-09T23:30:31.115Z,4.90
2022-11-09T23:33:17.039Z,4.15
2022-11-09T23:36:06.534Z,4.68
2022-11-09T23:38:55.091Z,4.15
2022-11-09T23:41:42.695Z,4.40
2022-11-09T23:47:16.680Z,4.00
2022-11-09T23:50:03.693Z,3.72
2022-11-09T23:52:49.714Z,3.80
2022-11-09T23:55:38.637Z,3.42
2022-11-09T23:58:24.893Z,3.20
